createdAt,value
2019-03-22T00:00:01.910Z,989.01
2019-03-22T00:01:01.930Z,989.06
2019-03-22T00:02:01.889Z,988.96
2019-03-22T00:03:02.035Z,989.01
2019-03-22T00:04:01.876Z,988.96
2019-03-22T00:05:01.868Z,988.99
2019-03-22T00:06:01.873Z,988.95
2019-03-22T00:07:01.828Z,989.01
2019-03-22T00:08:01.819Z,988.94
2019-03-22T00:09:01.807Z,988.98
2019-03-22T00:10:01.796Z,988.87
2019-03-22T00:11:01.800Z,988.92
2019-03-22T00:12:04.180Z,988.97
2019-03-22T00:13:01.769Z,988.85
2019-03-22T00:14:01.756Z,988.95
2019-03-22T00:15:01.753Z,988.85
2019-03-22T00:16:01.748Z,988.94
2019-03-22T00:17:01.732Z,988.92
2019-03-22T00:18:01.714Z,988.96
2019-03-22T00:19:01.700Z,988.87
2019-03-22T00:20:01.689Z,988.93
2019-03-22T00:21:01.685Z,988.95
2019-03-22T00:22:01.677Z,988.97
2019-03-22T00:23:01.670Z,989.00
2019-03-22T00:24:01.654Z,988.95
2019-03-22T00:25:01.667Z,988.94
2019-03-22T00:26:01.626Z,989.00
2019-03-22T00:27:01.621Z,988.96
2019-03-22T00:28:01.608Z,988.98
2019-03-22T00:29:01.598Z,989.00
2019-03-22T00:30:01.594Z,989.01
2019-03-22T00:31:01.610Z,989.05
2019-03-22T00:32:01.562Z,989.10
2019-03-22T00:33:01.565Z,989.04
2019-03-22T00:34:01.560Z,989.03
2019-03-22T00:35:01.553Z,989.01
2019-03-22T00:36:01.519Z,988.98
2019-03-22T00:37:01.520Z,988.99
2019-03-22T00:38:01.503Z,988.95
2019-03-22T00:39:01.486Z,988.91
2019-03-22T00:40:01.486Z,988.95
2019-03-22T00:41:01.494Z,988.90
2019-03-22T00:42:01.478Z,988.91
2019-03-22T00:43:01.444Z,988.96
2019-03-22T00:44:01.433Z,988.94
2019-03-22T00:45:01.420Z,988.99
2019-03-22T00:46:01.416Z,988.93
2019-03-22T00:47:01.515Z,988.92
2019-03-22T00:48:01.398Z,988.85
2019-03-22T00:49:01.397Z,988.80
2019-03-22T00:50:01.388Z,988.85
2019-03-22T00:51:01.362Z,988.84
2019-03-22T00:52:01.349Z,988.75
2019-03-22T00:53:01.355Z,988.78
2019-03-22T00:54:01.324Z,988.81
2019-03-22T00:55:01.321Z,988.83
2019-03-22T00:56:01.322Z,988.80
2019-03-22T00:57:01.305Z,988.82
2019-03-22T00:58:01.287Z,988.87
2019-03-22T00:59:01.335Z,988.83
2019-03-22T01:00:01.259Z,988.77
2019-03-22T01:01:01.256Z,988.77
2019-03-22T01:02:01.272Z,988.73
2019-03-22T01:03:01.233Z,988.75
2019-03-22T01:04:01.220Z,988.70
2019-03-22T01:05:01.230Z,988.72
2019-03-22T01:06:01.209Z,988.70
2019-03-22T01:07:01.201Z,988.72
2019-03-22T01:08:01.191Z,988.75
2019-03-22T01:09:01.190Z,988.73
2019-03-22T01:10:01.158Z,988.71
2019-03-22T01:11:01.150Z,988.67
2019-03-22T01:12:01.142Z,988.71
2019-03-22T01:13:01.130Z,988.67
2019-03-22T01:14:01.207Z,988.63
2019-03-22T01:15:01.119Z,988.72
2019-03-22T01:16:01.121Z,988.66
2019-03-22T01:17:01.110Z,988.69
2019-03-22T01:18:01.082Z,988.70
2019-03-22T01:19:01.055Z,988.68
2019-03-22T01:20:01.050Z,988.64
2019-03-22T01:21:01.052Z,988.69
2019-03-22T01:22:01.037Z,988.59
2019-03-22T01:23:01.023Z,988.65
2019-03-22T01:24:01.021Z,988.63
2019-03-22T01:25:00.990Z,988.63
2019-03-22T01:26:00.983Z,988.66
2019-03-22T01:27:00.977Z,988.67
2019-03-22T01:28:00.961Z,988.65
2019-03-22T01:29:00.956Z,988.66
2019-03-22T01:30:00.942Z,988.64
2019-03-22T01:31:00.933Z,988.60
2019-03-22T01:32:00.971Z,988.60
2019-03-22T01:33:00.909Z,988.64
2019-03-22T01:34:00.899Z,988.60
2019-03-22T01:35:00.884Z,988.62
2019-03-22T01:36:00.876Z,988.64
2019-03-22T01:37:00.875Z,988.64
2019-03-22T01:38:00.853Z,988.63
2019-03-22T01:39:00.852Z,988.68
2019-03-22T01:40:00.842Z,988.63
2019-03-22T01:41:00.822Z,988.64
2019-03-22T01:42:00.833Z,988.62
2019-03-22T01:43:00.809Z,988.60
2019-03-22T01:44:00.791Z,988.59
2019-03-22T01:45:00.789Z,988.59
2019-03-22T01:46:00.892Z,988.54
2019-03-22T01:47:00.814Z,988.62
2019-03-22T01:48:00.763Z,988.64
2019-03-22T01:49:00.746Z,988.65
2019-03-22T01:50:00.728Z,988.65
2019-03-22T01:51:00.738Z,988.64
2019-03-22T01:52:00.733Z,988.63
2019-03-22T01:53:00.856Z,988.61
2019-03-22T01:54:00.682Z,988.63
2019-03-22T01:55:00.674Z,988.57
2019-03-22T01:56:00.682Z,988.63
2019-03-22T01:57:00.676Z,988.62
2019-03-22T01:58:00.637Z,988.66
2019-03-22T01:59:00.644Z,988.62
2019-03-22T02:00:00.618Z,988.64
2019-03-22T02:01:00.614Z,988.64
2019-03-22T02:02:00.608Z,988.62
2019-03-22T02:03:00.583Z,988.56
2019-03-22T02:04:00.578Z,988.55
2019-03-22T02:05:00.572Z,988.64
2019-03-22T02:06:00.553Z,988.56
2019-03-22T02:07:00.577Z,988.59
2019-03-22T02:08:00.548Z,988.59
2019-03-22T02:09:00.520Z,988.57
2019-03-22T02:10:00.521Z,988.53
2019-03-22T02:11:00.499Z,988.48
2019-03-22T02:12:00.499Z,988.46
2019-03-22T02:13:00.478Z,988.50
2019-03-22T02:14:00.474Z,988.48
2019-03-22T02:15:00.478Z,988.48
2019-03-22T02:16:00.486Z,988.49
2019-03-22T02:17:00.455Z,988.48
2019-03-22T02:18:00.424Z,988.43
2019-03-22T02:19:00.415Z,988.40
2019-03-22T02:20:00.406Z,988.49
2019-03-22T02:21:00.395Z,988.40
2019-03-22T02:22:00.433Z,988.39
2019-03-22T02:23:00.376Z,988.40
2019-03-22T02:24:00.374Z,988.35
2019-03-22T02:25:00.382Z,988.32
2019-03-22T02:26:00.348Z,988.38
2019-03-22T02:27:00.353Z,988.35
2019-03-22T02:28:04.370Z,988.26
2019-03-22T02:29:00.310Z,988.29
2019-03-22T02:30:00.546Z,988.29
2019-03-22T02:31:00.296Z,988.21
2019-03-22T02:32:00.300Z,988.20
2019-03-22T02:33:00.269Z,988.23
2019-03-22T02:34:00.255Z,988.24
2019-03-22T02:35:00.437Z,988.28
2019-03-22T02:36:00.231Z,988.24
2019-03-22T02:37:00.261Z,988.23
2019-03-22T02:38:00.238Z,988.26
2019-03-22T02:39:00.217Z,988.25
2019-03-22T02:40:00.570Z,988.21
2019-03-22T02:41:00.188Z,988.19
2019-03-22T02:42:00.184Z,988.18
2019-03-22T02:43:00.168Z,988.23
2019-03-22T02:44:00.283Z,988.21
2019-03-22T02:45:00.501Z,988.22
2019-03-22T02:46:00.139Z,988.27
2019-03-22T02:47:00.135Z,988.21
2019-03-22T02:48:00.108Z,988.21
2019-03-22T02:49:00.127Z,988.24
2019-03-22T02:50:00.469Z,988.23
2019-03-22T02:51:00.074Z,988.20
2019-03-22T02:52:00.085Z,988.17
2019-03-22T02:53:00.073Z,988.19
2019-03-22T02:54:00.042Z,988.19
2019-03-22T02:55:00.028Z,988.20
2019-03-22T02:56:00.135Z,988.19
2019-03-22T02:57:00.082Z,988.15
2019-03-22T02:58:00.011Z,988.21
2019-03-22T02:58:59.993Z,988.21
2019-03-22T03:00:00.011Z,988.17
2019-03-22T03:00:59.986Z,988.31
2019-03-22T03:01:59.970Z,988.31
2019-03-22T03:02:59.949Z,988.28
2019-03-22T03:03:59.933Z,988.25
2019-03-22T03:04:59.923Z,988.26
2019-03-22T03:05:59.934Z,988.22
2019-03-22T03:06:59.924Z,988.30
2019-03-22T03:07:59.901Z,988.27
2019-03-22T03:08:59.883Z,988.23
2019-03-22T03:09:59.871Z,988.28
2019-03-22T03:10:59.860Z,988.26
2019-03-22T03:11:59.879Z,988.24
2019-03-22T03:12:59.835Z,988.25
2019-03-22T03:13:59.829Z,988.22
2019-03-22T03:14:59.831Z,988.22
2019-03-22T03:15:59.806Z,988.18
2019-03-22T03:16:59.803Z,988.24
2019-03-22T03:17:59.821Z,988.27
2019-03-22T03:18:59.771Z,988.25
2019-03-22T03:19:59.765Z,988.27
2019-03-22T03:20:59.780Z,988.22
2019-03-22T03:21:59.762Z,988.27
2019-03-22T03:22:59.738Z,988.24
2019-03-22T03:23:59.735Z,988.29
2019-03-22T03:24:59.711Z,988.32
2019-03-22T03:25:59.702Z,988.27
2019-03-22T03:26:59.697Z,988.29
2019-03-22T03:27:59.737Z,988.31
2019-03-22T03:28:59.727Z,988.31
2019-03-22T03:29:59.766Z,988.36
2019-03-22T03:30:59.840Z,988.31
2019-03-22T03:31:59.644Z,988.27
2019-03-22T03:32:59.660Z,988.29
2019-03-22T03:33:59.635Z,988.36
2019-03-22T03:34:59.607Z,988.32
2019-03-22T03:35:59.617Z,988.32
2019-03-22T03:36:59.585Z,988.35
2019-03-22T03:37:59.606Z,988.34
2019-03-22T03:38:59.556Z,988.30
2019-03-22T03:39:59.553Z,988.34
2019-03-22T03:40:59.553Z,988.27
2019-03-22T03:41:59.539Z,988.27
2019-03-22T03:42:59.516Z,988.27
2019-03-22T03:43:59.514Z,988.22
2019-03-22T03:44:59.508Z,988.28
2019-03-22T03:45:59.515Z,988.24
2019-03-22T03:46:59.473Z,988.27
2019-03-22T03:47:59.463Z,988.22
2019-03-22T03:48:59.459Z,988.26
2019-03-22T03:49:59.461Z,988.21
2019-03-22T03:50:59.443Z,988.20
2019-03-22T03:51:59.421Z,988.21
2019-03-22T03:52:59.431Z,988.27
2019-03-22T03:53:59.396Z,988.18
2019-03-22T03:54:59.421Z,988.25
2019-03-22T03:55:59.383Z,988.25
2019-03-22T03:56:59.373Z,988.24
2019-03-22T03:57:59.357Z,988.21
2019-03-22T03:58:59.350Z,988.25
2019-03-22T03:59:59.352Z,988.24
2019-03-22T04:00:59.328Z,988.24
2019-03-22T04:01:59.353Z,988.24
2019-03-22T04:02:59.309Z,988.25
2019-03-22T04:03:59.289Z,988.22
2019-03-22T04:04:59.336Z,988.30
2019-03-22T04:05:59.273Z,988.34
2019-03-22T04:06:59.273Z,988.31
2019-03-22T04:07:59.272Z,988.28
2019-03-22T04:08:59.256Z,988.30
2019-03-22T04:09:59.241Z,988.26
2019-03-22T04:10:59.233Z,988.37
2019-03-22T04:11:59.220Z,988.31
2019-03-22T04:12:59.227Z,988.32
2019-03-22T04:13:59.183Z,988.24
2019-03-22T04:14:59.177Z,988.30
2019-03-22T04:15:59.225Z,988.27
2019-03-22T04:16:59.154Z,988.33
2019-03-22T04:17:59.222Z,988.29
2019-03-22T04:18:59.134Z,988.28
2019-03-22T04:19:59.145Z,988.31
2019-03-22T04:20:59.130Z,988.28
2019-03-22T04:21:59.129Z,988.28
2019-03-22T04:22:59.097Z,988.32
2019-03-22T04:23:59.087Z,988.32
2019-03-22T04:24:59.061Z,988.30
2019-03-22T04:25:59.051Z,988.33
2019-03-22T04:26:59.041Z,988.33
2019-03-22T04:27:59.056Z,988.30
2019-03-22T04:29:07.145Z,988.30
2019-03-22T04:30:00.020Z,988.32
2019-03-22T04:30:59.002Z,988.30
2019-03-22T04:31:58.998Z,988.26
2019-03-22T04:32:59.132Z,988.29
2019-03-22T04:33:58.983Z,988.29
2019-03-22T04:34:58.966Z,988.32
2019-03-22T04:35:58.951Z,988.32
2019-03-22T04:36:58.938Z,988.28
2019-03-22T04:37:58.938Z,988.35
2019-03-22T04:38:58.916Z,988.30
2019-03-22T04:39:58.910Z,988.30
2019-03-22T04:40:58.902Z,988.33
2019-03-22T04:41:58.901Z,988.34
2019-03-22T04:42:58.913Z,988.33
2019-03-22T04:43:58.866Z,988.41
2019-03-22T04:44:58.853Z,988.42
2019-03-22T04:45:58.839Z,988.43
2019-03-22T04:46:58.834Z,988.43
2019-03-22T04:47:58.828Z,988.51
2019-03-22T04:48:58.810Z,988.56
2019-03-22T04:49:58.802Z,988.57
2019-03-22T04:50:58.831Z,988.58
2019-03-22T04:51:58.784Z,988.61
2019-03-22T04:52:58.793Z,988.57
2019-03-22T04:53:58.752Z,988.62
2019-03-22T04:54:58.800Z,988.60
2019-03-22T04:55:58.732Z,988.63
2019-03-22T04:56:58.724Z,988.58
2019-03-22T04:57:58.722Z,988.62
2019-03-22T04:58:58.703Z,988.59
2019-03-22T04:59:58.715Z,988.60
2019-03-22T05:00:58.694Z,988.58
2019-03-22T05:01:58.686Z,988.59
2019-03-22T05:02:58.688Z,988.60
2019-03-22T05:03:59.217Z,988.56
2019-03-22T05:04:58.644Z,988.64
2019-03-22T05:05:58.624Z,988.58
2019-03-22T05:06:58.617Z,988.57
2019-03-22T05:07:58.626Z,988.58
2019-03-22T05:08:58.605Z,988.56
2019-03-22T05:09:58.616Z,988.61
2019-03-22T05:10:58.583Z,988.62
2019-03-22T05:11:58.560Z,988.58
2019-03-22T05:12:58.577Z,988.64
2019-03-22T05:13:58.541Z,988.53
2019-03-22T05:14:58.596Z,988.56
2019-03-22T05:15:58.520Z,988.56
2019-03-22T05:16:58.514Z,988.60
2019-03-22T05:17:58.517Z,988.60
2019-03-22T05:18:58.491Z,988.62
2019-03-22T05:19:58.510Z,988.58
2019-03-22T05:20:58.467Z,988.57
2019-03-22T05:21:58.456Z,988.58
2019-03-22T05:22:58.600Z,988.63
2019-03-22T05:23:58.498Z,988.58
2019-03-22T05:24:58.525Z,988.57
2019-03-22T05:25:58.435Z,988.63
2019-03-22T05:26:58.400Z,988.66
2019-03-22T05:27:58.416Z,988.60
2019-03-22T05:28:58.378Z,988.66
2019-03-22T05:29:58.375Z,988.64
2019-03-22T05:30:58.359Z,988.68
2019-03-22T05:31:58.350Z,988.59
2019-03-22T05:32:58.346Z,988.57
2019-03-22T05:33:58.334Z,988.58
2019-03-22T05:34:58.330Z,988.60
2019-03-22T05:35:58.307Z,988.58
2019-03-22T05:36:58.293Z,988.57
2019-03-22T05:37:58.346Z,988.59
2019-03-22T05:38:59.143Z,988.65
2019-03-22T05:39:58.373Z,988.56
2019-03-22T05:40:58.469Z,988.60
2019-03-22T05:41:58.259Z,988.54
2019-03-22T05:42:58.240Z,988.58
2019-03-22T05:43:58.230Z,988.58
2019-03-22T05:44:58.267Z,988.60
2019-03-22T05:45:58.201Z,988.54
2019-03-22T05:46:58.230Z,988.60
2019-03-22T05:47:58.197Z,988.54
2019-03-22T05:48:58.171Z,988.64
2019-03-22T05:49:58.155Z,988.59
2019-03-22T05:50:58.171Z,988.60
2019-03-22T05:51:58.140Z,988.56
2019-03-22T05:52:58.134Z,988.57
2019-03-22T05:53:58.137Z,988.60
2019-03-22T05:54:58.102Z,988.61
2019-03-22T05:55:58.094Z,988.57
2019-03-22T05:56:58.091Z,988.55
2019-03-22T05:57:58.071Z,988.56
2019-03-22T05:58:58.089Z,988.61
2019-03-22T05:59:58.052Z,988.55
2019-03-22T06:00:58.048Z,988.61
2019-03-22T06:01:58.047Z,988.62
2019-03-22T06:02:58.017Z,988.62
2019-03-22T06:03:58.055Z,988.66
2019-03-22T06:04:58.029Z,988.65
2019-03-22T06:05:58.002Z,988.72
2019-03-22T06:06:58.042Z,988.64
2019-03-22T06:07:57.966Z,988.74
2019-03-22T06:08:57.956Z,988.75
2019-03-22T06:09:57.969Z,988.72
2019-03-22T06:10:57.931Z,988.74
2019-03-22T06:11:57.945Z,988.81
2019-03-22T06:12:57.910Z,988.76
2019-03-22T06:13:57.900Z,988.74
2019-03-22T06:14:57.890Z,988.81
2019-03-22T06:15:57.881Z,988.81
2019-03-22T06:16:57.874Z,988.82
2019-03-22T06:17:57.876Z,988.79
2019-03-22T06:18:57.861Z,988.76
2019-03-22T06:19:57.835Z,988.74
2019-03-22T06:20:57.863Z,988.78
2019-03-22T06:21:57.839Z,988.78
2019-03-22T06:22:57.807Z,988.74
2019-03-22T06:23:57.826Z,988.69
2019-03-22T06:24:57.780Z,988.69
2019-03-22T06:25:57.838Z,988.69
2019-03-22T06:26:57.769Z,988.67
2019-03-22T06:27:57.761Z,988.69
2019-03-22T06:28:57.966Z,988.69
2019-03-22T06:29:57.785Z,988.72
2019-03-22T06:30:57.780Z,988.71
2019-03-22T06:31:57.738Z,988.70
2019-03-22T06:32:57.694Z,988.74
2019-03-22T06:33:57.683Z,988.70
2019-03-22T06:34:57.721Z,988.71
2019-03-22T06:35:57.671Z,988.63
2019-03-22T06:36:57.700Z,988.71
2019-03-22T06:37:57.644Z,988.60
2019-03-22T06:38:57.636Z,988.59
2019-03-22T06:39:57.625Z,988.66
2019-03-22T06:40:57.636Z,988.60
2019-03-22T06:41:57.602Z,988.64
2019-03-22T06:42:57.596Z,988.63
2019-03-22T06:43:57.618Z,988.67
2019-03-22T06:44:57.574Z,988.66
2019-03-22T06:45:57.638Z,988.70
2019-03-22T06:46:57.544Z,988.70
2019-03-22T06:47:57.540Z,988.71
2019-03-22T06:48:57.538Z,988.74
2019-03-22T06:49:57.553Z,988.74
2019-03-22T06:50:57.655Z,988.76
2019-03-22T06:51:57.491Z,988.69
2019-03-22T06:52:57.490Z,988.73
2019-03-22T06:53:57.475Z,988.73
2019-03-22T06:54:57.478Z,988.76
2019-03-22T06:55:57.476Z,988.70
2019-03-22T06:56:57.438Z,988.75
2019-03-22T06:57:57.426Z,988.69
2019-03-22T06:58:57.449Z,988.70
2019-03-22T07:00:06.494Z,988.65
2019-03-22T07:00:58.398Z,988.69
2019-03-22T07:01:57.431Z,988.64
2019-03-22T07:02:57.373Z,988.66
2019-03-22T07:03:57.367Z,988.63
2019-03-22T07:04:57.381Z,988.63
2019-03-22T07:05:57.454Z,988.60
2019-03-22T07:06:57.330Z,988.62
2019-03-22T07:07:57.338Z,988.62
2019-03-22T07:08:57.309Z,988.55
2019-03-22T07:09:57.317Z,988.65
2019-03-22T07:10:57.335Z,988.59
2019-03-22T07:11:57.344Z,988.60
2019-03-22T07:12:57.287Z,988.61
2019-03-22T07:13:57.269Z,988.53
2019-03-22T07:14:57.261Z,988.54
2019-03-22T07:15:57.233Z,988.57
2019-03-22T07:16:58.943Z,988.54
2019-03-22T07:17:57.214Z,988.54
2019-03-22T07:18:57.208Z,988.51
2019-03-22T07:19:57.202Z,988.60
2019-03-22T07:20:57.192Z,988.60
2019-03-22T07:21:57.168Z,988.55
2019-03-22T07:22:57.185Z,988.59
2019-03-22T07:23:57.178Z,988.68
2019-03-22T07:24:57.149Z,988.60
2019-03-22T07:25:57.127Z,988.69
2019-03-22T07:26:57.122Z,988.63
2019-03-22T07:27:57.249Z,988.74
2019-03-22T07:28:57.136Z,988.66
2019-03-22T07:29:57.137Z,988.73
2019-03-22T07:30:57.080Z,988.74
2019-03-22T07:31:57.066Z,988.73
2019-03-22T07:32:57.060Z,988.73
2019-03-22T07:33:57.047Z,988.72
2019-03-22T07:34:57.061Z,988.77
2019-03-22T07:35:57.023Z,988.78
2019-03-22T07:36:57.375Z,988.76
2019-03-22T07:37:57.051Z,988.73
2019-03-22T07:38:56.990Z,988.73
2019-03-22T07:39:56.988Z,988.71
2019-03-22T07:40:56.990Z,988.72
2019-03-22T07:41:56.959Z,988.73
2019-03-22T07:42:56.961Z,988.70
2019-03-22T07:43:56.939Z,988.69
2019-03-22T07:44:56.963Z,988.71
2019-03-22T07:45:56.919Z,988.71
2019-03-22T07:46:56.905Z,988.70
2019-03-22T07:47:56.913Z,988.73
2019-03-22T07:48:56.884Z,988.71
2019-03-22T07:49:57.189Z,988.76
2019-03-22T07:50:56.875Z,988.77
2019-03-22T07:51:56.938Z,988.77
2019-03-22T07:52:56.918Z,988.72
2019-03-22T07:53:56.951Z,988.77
2019-03-22T07:54:56.855Z,988.71
2019-03-22T07:55:56.809Z,988.66
2019-03-22T07:56:56.797Z,988.64
2019-03-22T07:57:56.804Z,988.69
2019-03-22T07:58:56.811Z,988.70
2019-03-22T07:59:56.837Z,988.69
2019-03-22T08:00:56.861Z,988.70
2019-03-22T08:01:56.745Z,988.70
2019-03-22T08:02:56.733Z,988.66
2019-03-22T08:03:56.721Z,988.65
2019-03-22T08:04:56.756Z,988.62
2019-03-22T08:05:56.699Z,988.64
2019-03-22T08:06:56.689Z,988.55
2019-03-22T08:07:56.680Z,988.59
2019-03-22T08:08:56.682Z,988.61
2019-03-22T08:09:56.766Z,988.59
2019-03-22T08:10:56.649Z,988.62
2019-03-22T08:11:56.654Z,988.60
2019-03-22T08:12:56.630Z,988.57
2019-03-22T08:13:56.623Z,988.56
2019-03-22T08:14:56.616Z,988.53
2019-03-22T08:15:57.661Z,988.53
2019-03-22T08:16:56.593Z,988.47
2019-03-22T08:17:57.230Z,988.48
2019-03-22T08:18:56.559Z,988.54
2019-03-22T08:19:57.333Z,988.45
2019-03-22T08:20:56.559Z,988.46
2019-03-22T08:21:56.539Z,988.51
2019-03-22T08:22:56.516Z,988.48
2019-03-22T08:23:56.533Z,988.52
2019-03-22T08:24:56.537Z,988.57
2019-03-22T08:25:56.506Z,988.56
2019-03-22T08:26:56.581Z,988.64
2019-03-22T08:27:56.472Z,988.55
2019-03-22T08:28:56.464Z,988.53
2019-03-22T08:29:56.447Z,988.49
2019-03-22T08:30:56.449Z,988.47
2019-03-22T08:31:56.423Z,988.48
2019-03-22T08:32:56.409Z,988.43
2019-03-22T08:33:56.415Z,988.40
2019-03-22T08:34:56.391Z,988.36
2019-03-22T08:35:56.423Z,988.41
2019-03-22T08:36:56.410Z,988.38
2019-03-22T08:37:56.384Z,988.35
2019-03-22T08:38:56.360Z,988.35
2019-03-22T08:39:56.405Z,988.29
2019-03-22T08:40:56.326Z,988.36
2019-03-22T08:41:56.312Z,988.37
2019-03-22T08:42:56.303Z,988.32
2019-03-22T08:43:56.299Z,988.31
2019-03-22T08:44:56.281Z,988.27
2019-03-22T08:45:56.269Z,988.33
2019-03-22T08:46:56.289Z,988.20
2019-03-22T08:47:56.291Z,988.21
2019-03-22T08:48:56.311Z,988.21
2019-03-22T08:49:56.259Z,988.16
2019-03-22T08:50:56.214Z,988.24
2019-03-22T08:51:56.224Z,988.24
2019-03-22T08:52:56.207Z,988.22
2019-03-22T08:53:56.183Z,988.23
2019-03-22T08:54:56.214Z,988.22
2019-03-22T08:55:56.262Z,988.22
2019-03-22T08:56:56.186Z,988.22
2019-03-22T08:57:56.137Z,988.23
2019-03-22T08:58:56.129Z,988.18
2019-03-22T08:59:56.119Z,988.23
2019-03-22T09:00:57.897Z,988.29
2019-03-22T09:01:56.098Z,988.34
2019-03-22T09:02:56.112Z,988.27
2019-03-22T09:03:56.147Z,988.28
2019-03-22T09:04:56.072Z,988.26
2019-03-22T09:05:56.067Z,988.31
2019-03-22T09:06:58.855Z,988.27
2019-03-22T09:07:56.046Z,988.30
2019-03-22T09:08:56.015Z,988.32
2019-03-22T09:09:56.006Z,988.27
2019-03-22T09:10:56.059Z,988.28
2019-03-22T09:11:55.984Z,988.26
2019-03-22T09:12:55.977Z,988.27
2019-03-22T09:13:56.045Z,988.23
2019-03-22T09:14:55.957Z,988.22
2019-03-22T09:15:55.970Z,988.18
2019-03-22T09:16:55.933Z,988.17
2019-03-22T09:17:56.031Z,988.19
2019-03-22T09:18:55.912Z,988.20
2019-03-22T09:19:55.984Z,988.12
2019-03-22T09:20:55.901Z,988.19
2019-03-22T09:21:55.882Z,988.17
2019-03-22T09:22:55.882Z,988.20
2019-03-22T09:23:55.877Z,988.15
2019-03-22T09:24:55.941Z,988.11
2019-03-22T09:25:55.837Z,988.16
2019-03-22T09:26:55.862Z,988.06
2019-03-22T09:27:55.819Z,988.10
2019-03-22T09:28:55.826Z,988.11
2019-03-22T09:29:55.802Z,988.06
2019-03-22T09:30:55.820Z,988.11
2019-03-22T09:31:55.785Z,988.10
2019-03-22T09:32:55.824Z,988.10
2019-03-22T09:33:55.750Z,988.16
2019-03-22T09:34:55.765Z,988.09
2019-03-22T09:35:55.845Z,988.10
2019-03-22T09:36:55.725Z,988.08
2019-03-22T09:37:55.741Z,988.14
2019-03-22T09:38:55.729Z,988.17
2019-03-22T09:39:55.702Z,988.06
2019-03-22T09:40:55.751Z,988.09
2019-03-22T09:41:55.691Z,988.09
2019-03-22T09:42:55.708Z,988.04
2019-03-22T09:43:55.680Z,988.05
2019-03-22T09:44:55.689Z,987.98
2019-03-22T09:45:55.625Z,987.97
2019-03-22T09:46:55.657Z,987.99
2019-03-22T09:47:55.602Z,987.96
2019-03-22T09:48:55.598Z,987.93
2019-03-22T09:49:55.599Z,987.94
2019-03-22T09:50:55.593Z,987.90
2019-03-22T09:51:55.614Z,987.88
2019-03-22T09:52:55.580Z,987.89
2019-03-22T09:53:55.718Z,987.92
2019-03-22T09:54:55.599Z,987.82
2019-03-22T09:55:55.532Z,987.89
2019-03-22T09:56:55.539Z,987.85
2019-03-22T09:57:55.508Z,987.85
2019-03-22T09:58:55.527Z,987.89
2019-03-22T09:59:55.497Z,987.84
2019-03-22T10:00:55.551Z,987.89
2019-03-22T10:01:55.454Z,987.93
2019-03-22T10:02:55.445Z,987.85
2019-03-22T10:03:55.494Z,987.84
2019-03-22T10:04:55.428Z,987.83
2019-03-22T10:05:55.435Z,987.85
2019-03-22T10:06:55.451Z,987.90
2019-03-22T10:07:55.407Z,987.86
2019-03-22T10:08:55.450Z,987.81
2019-03-22T10:09:55.390Z,987.68
2019-03-22T10:10:55.371Z,987.67
2019-03-22T10:11:55.348Z,987.71
2019-03-22T10:12:55.370Z,987.64
2019-03-22T10:13:55.332Z,987.64
2019-03-22T10:14:55.321Z,987.67
2019-03-22T10:15:55.677Z,987.66
2019-03-22T10:16:55.336Z,987.62
2019-03-22T10:17:55.288Z,987.65
2019-03-22T10:18:55.305Z,987.62
2019-03-22T10:19:55.405Z,987.66
2019-03-22T10:20:55.285Z,987.59
2019-03-22T10:21:55.293Z,987.57
2019-03-22T10:22:55.239Z,987.53
2019-03-22T10:23:55.243Z,987.55
2019-03-22T10:24:55.251Z,987.58
2019-03-22T10:25:55.230Z,987.57
2019-03-22T10:26:55.210Z,987.54
2019-03-22T10:27:55.263Z,987.57
2019-03-22T10:28:55.198Z,987.50
2019-03-22T10:29:55.172Z,987.48
2019-03-22T10:30:55.190Z,987.50
2019-03-22T10:31:55.199Z,987.50
2019-03-22T10:32:55.136Z,987.45
2019-03-22T10:33:55.142Z,987.44
2019-03-22T10:34:55.125Z,987.44
2019-03-22T10:35:55.122Z,987.39
2019-03-22T10:36:55.118Z,987.45
2019-03-22T10:38:00.531Z,987.33
2019-03-22T10:38:56.132Z,987.39
2019-03-22T10:39:55.069Z,987.40
2019-03-22T10:40:55.058Z,987.43
2019-03-22T10:41:55.047Z,987.43
2019-03-22T10:42:55.074Z,987.42
2019-03-22T10:43:55.047Z,987.39
2019-03-22T10:44:55.024Z,987.40
2019-03-22T10:45:55.062Z,987.39
2019-03-22T10:46:55.037Z,987.38
2019-03-22T10:47:54.994Z,987.32
2019-03-22T10:48:54.970Z,987.37
2019-03-22T10:49:55.013Z,987.34
2019-03-22T10:50:54.983Z,987.35
2019-03-22T10:51:57.785Z,987.28
2019-03-22T10:52:55.067Z,987.31
2019-03-22T10:53:54.923Z,987.28
2019-03-22T10:54:54.983Z,987.29
2019-03-22T10:55:54.894Z,987.29
2019-03-22T10:56:54.889Z,987.26
2019-03-22T10:57:55.601Z,987.27
2019-03-22T10:58:54.864Z,987.25
2019-03-22T10:59:54.884Z,987.31
2019-03-22T11:00:54.852Z,987.32
2019-03-22T11:02:03.188Z,987.24
2019-03-22T11:02:55.823Z,987.23
2019-03-22T11:03:54.845Z,987.17
2019-03-22T11:04:54.823Z,987.24
2019-03-22T11:05:54.801Z,987.26
2019-03-22T11:06:54.795Z,987.16
2019-03-22T11:07:54.775Z,987.17
2019-03-22T11:08:54.763Z,987.19
2019-03-22T11:09:54.757Z,987.14
2019-03-22T11:10:54.748Z,987.14
2019-03-22T11:11:54.741Z,987.13
2019-03-22T11:12:54.726Z,987.20
2019-03-22T11:13:54.713Z,987.16
2019-03-22T11:14:54.718Z,987.11
2019-03-22T11:15:54.702Z,987.17
2019-03-22T11:16:54.704Z,987.20
2019-03-22T11:17:54.674Z,987.19
2019-03-22T11:18:54.659Z,987.21
2019-03-22T11:19:54.663Z,987.21
2019-03-22T11:21:04.514Z,987.21
2019-03-22T11:21:55.645Z,987.17
2019-03-22T11:22:54.624Z,987.19
2019-03-22T11:23:54.640Z,987.18
2019-03-22T11:24:54.604Z,987.15
2019-03-22T11:26:03.841Z,987.12
2019-03-22T11:26:55.589Z,987.11
2019-03-22T11:27:54.572Z,987.11
2019-03-22T11:28:54.561Z,987.14
2019-03-22T11:29:54.592Z,987.12
2019-03-22T11:31:01.046Z,987.13
2019-03-22T11:31:55.531Z,987.11
2019-03-22T11:32:54.532Z,987.15
2019-03-22T11:33:54.532Z,987.14
2019-03-22T11:34:54.506Z,987.09
2019-03-22T11:35:54.512Z,987.10
2019-03-22T11:36:54.483Z,987.08
2019-03-22T11:37:54.477Z,987.07
2019-03-22T11:38:54.458Z,987.01
2019-03-22T11:39:54.453Z,986.99
2019-03-22T11:40:54.439Z,986.97
2019-03-22T11:41:54.432Z,986.96
2019-03-22T11:42:54.422Z,987.06
2019-03-22T11:43:54.418Z,986.99
2019-03-22T11:44:54.482Z,986.99
2019-03-22T11:45:54.395Z,986.94
2019-03-22T11:46:54.388Z,986.93
2019-03-22T11:47:54.404Z,986.99
2019-03-22T11:48:54.359Z,987.03
2019-03-22T11:49:54.348Z,986.92
2019-03-22T11:50:54.338Z,986.92
2019-03-22T11:51:54.341Z,986.91
2019-03-22T11:52:54.327Z,986.89
2019-03-22T11:53:54.325Z,986.85
2019-03-22T11:54:54.301Z,986.81
2019-03-22T11:55:54.290Z,986.82
2019-03-22T11:56:54.295Z,986.79
2019-03-22T11:57:54.269Z,986.79
2019-03-22T11:58:54.255Z,986.70
2019-03-22T11:59:54.245Z,986.74
2019-03-22T12:00:54.232Z,986.76
2019-03-22T12:01:54.266Z,986.72
2019-03-22T12:02:54.224Z,986.73
2019-03-22T12:03:54.212Z,986.71
2019-03-22T12:04:54.198Z,986.74
2019-03-22T12:05:54.180Z,986.70
2019-03-22T12:06:54.215Z,986.66
2019-03-22T12:07:54.171Z,986.69
2019-03-22T12:08:54.191Z,986.71
2019-03-22T12:09:54.142Z,986.70
2019-03-22T12:10:54.170Z,986.68
2019-03-22T12:11:54.142Z,986.70
2019-03-22T12:12:54.140Z,986.64
2019-03-22T12:13:54.167Z,986.68
2019-03-22T12:14:54.103Z,986.66
2019-03-22T12:15:54.687Z,986.61
2019-03-22T12:16:54.130Z,986.64
2019-03-22T12:17:54.201Z,986.59
2019-03-22T12:18:54.053Z,986.57
2019-03-22T12:19:54.041Z,986.56
2019-03-22T12:20:54.049Z,986.58
2019-03-22T12:21:54.030Z,986.54
2019-03-22T12:22:54.011Z,986.48
2019-03-22T12:23:54.015Z,986.54
2019-03-22T12:24:53.984Z,986.52
2019-03-22T12:25:53.975Z,986.50
2019-03-22T12:26:53.967Z,986.47
2019-03-22T12:27:53.958Z,986.46